sensor_id;sensor_type;location;lat;lon;timestamp;temperature;humidity
42841;DHT22;28491;46.898;7.660;2023-08-01T00:02:10;18.60;1.00
42841;DHT22;28491;46.898;7.660;2023-08-01T00:04:35;18.50;1.00
42841;DHT22;28491;46.898;7.660;2023-08-01T00:07:01;18.60;1.00
42841;DHT22;28491;46.898;7.660;2023-08-01T00:09:27;18.50;1.00
42841;DHT22;28491;46.898;7.660;2023-08-01T00:11:52;18.50;1.00
42841;DHT22;28491;46.898;7.660;2023-08-01T00:14:18;18.50;1.00
42841;DHT22;28491;46.898;7.660;2023-08-01T00:16:45;18.50;1.00
42841;DHT22;28491;46.898;7.660;2023-08-01T00:19:11;18.50;1.00
42841;DHT22;28491;46.898;7.660;2023-08-01T00:21:37;18.50;1.00
42841;DHT22;28491;46.898;7.660;2023-08-01T00:24:03;18.50;1.00
42841;DHT22;28491;46.898;7.660;2023-08-01T00:26:30;18.50;1.00
42841;DHT22;28491;46.898;7.660;2023-08-01T00:28:56;18.50;1.00
42841;DHT22;28491;46.898;7.660;2023-08-01T00:31:21;18.40;1.00
42841;DHT22;28491;46.898;7.660;2023-08-01T00:33:47;18.50;1.00
42841;DHT22;28491;46.898;7.660;2023-08-01T00:36:12;18.40;1.00
42841;DHT22;28491;46.898;7.660;2023-08-01T00:38:38;18.50;1.00
42841;DHT22;28491;46.898;7.660;2023-08-01T00:41:03;18.40;1.00
42841;DHT22;28491;46.898;7.660;2023-08-01T00:43:29;18.40;1.00
42841;DHT22;28491;46.898;7.660;2023-08-01T00:45:59;18.40;1.00
42841;DHT22;28491;46.898;7.660;2023-08-01T00:48:25;18.40;1.00
42841;DHT22;28491;46.898;7.660;2023-08-01T00:50:51;18.30;1.00
42841;DHT22;28491;46.898;7.660;2023-08-01T00:53:18;18.30;1.00
42841;DHT22;28491;46.898;7.660;2023-08-01T00:55:44;18.30;1.00
42841;DHT22;28491;46.898;7.660;2023-08-01T00:58:10;18.40;1.00
42841;DHT22;28491;46.898;7.660;2023-08-01T01:00:35;18.30;1.00
42841;DHT22;28491;46.898;7.660;2023-08-01T01:03:01;18.30;1.00
42841;DHT22;28491;46.898;7.660;2023-08-01T01:05:31;18.30;1.00
42841;DHT22;28491;46.898;7.660;2023-08-01T01:07:58;18.20;1.00
42841;DHT22;28491;46.898;7.660;2023-08-01T01:10:23;18.10;1.00
42841;DHT22;28491;46.898;7.660;2023-08-01T01:12:49;18.10;1.00
42841;DHT22;28491;46.898;7.660;2023-08-01T01:15:15;18.20;1.00
42841;DHT22;28491;46.898;7.660;2023-08-01T01:17:41;18.10;1.00
42841;DHT22;28491;46.898;7.660;2023-08-01T01:20:06;18.10;1.00
42841;DHT22;28491;46.898;7.660;2023-08-01T01:22:32;18.10;1.00
42841;DHT22;28491;46.898;7.660;2023-08-01T01:25:00;18.00;1.00
42841;DHT22;28491;46.898;7.660;2023-08-01T01:27:27;18.00;1.00
42841;DHT22;28491;46.898;7.660;2023-08-01T01:29:53;18.00;1.00
42841;DHT22;28491;46.898;7.660;2023-08-01T01:32:23;18.00;1.00
42841;DHT22;28491;46.898;7.660;2023-08-01T01:34:48;17.90;1.00
42841;DHT22;28491;46.898;7.660;2023-08-01T01:37:14;18.00;1.00
42841;DHT22;28491;46.898;7.660;2023-08-01T01:39:40;17.90;1.00
42841;DHT22;28491;46.898;7.660;2023-08-01T01:42:06;17.90;1.00
42841;DHT22;28491;46.898;7.660;2023-08-01T01:44:31;17.90;1.00
42841;DHT22;28491;46.898;7.660;2023-08-01T01:46:58;17.90;1.00
42841;DHT22;28491;46.898;7.660;2023-08-01T01:49:23;17.90;1.00
42841;DHT22;28491;46.898;7.660;2023-08-01T01:51:51;17.90;1.00
42841;DHT22;28491;46.898;7.660;2023-08-01T01:54:16;17.80;1.00
42841;DHT22;28491;46.898;7.660;2023-08-01T01:56:42;17.90;1.00
42841;DHT22;28491;46.898;7.660;2023-08-01T01:59:07;18.00;1.00
42841;DHT22;28491;46.898;7.660;2023-08-01T02:01:33;18.00;1.00
42841;DHT22;28491;46.898;7.660;2023-08-01T02:03:58;18.10;1.00
42841;DHT22;28491;46.898;7.660;2023-08-01T02:06:24;18.10;1.00
42841;DHT22;28491;46.898;7.660;2023-08-01T02:08:49;18.10;1.00
42841;DHT22;28491;46.898;7.660;2023-08-01T02:11:15;18.10;1.00
42841;DHT22;28491;46.898;7.660;2023-08-01T02:13:40;18.20;1.00
42841;DHT22;28491;46.898;7.660;2023-08-01T02:16:06;18.30;1.00
42841;DHT22;28491;46.898;7.660;2023-08-01T02:18:31;18.30;1.00
42841;DHT22;28491;46.898;7.660;2023-08-01T02:20:57;18.40;1.00
42841;DHT22;28491;46.898;7.660;2023-08-01T02:23:22;18.40;1.00
42841;DHT22;28491;46.898;7.660;2023-08-01T02:25:48;18.50;1.00
42841;DHT22;28491;46.898;7.660;2023-08-01T02:28:13;18.60;1.00
42841;DHT22;28491;46.898;7.660;2023-08-01T02:30:39;18.60;1.00
42841;DHT22;28491;46.898;7.660;2023-08-01T02:33:04;18.70;1.00
42841;DHT22;28491;46.898;7.660;2023-08-01T02:35:30;18.70;1.00
42841;DHT22;28491;46.898;7.660;2023-08-01T02:37:56;18.80;1.00
42841;DHT22;28491;46.898;7.660;2023-08-01T02:40:22;18.80;1.00
42841;DHT22;28491;46.898;7.660;2023-08-01T02:42:47;18.90;1.00
42841;DHT22;28491;46.898;7.660;2023-08-01T02:45:13;18.90;1.00
42841;DHT22;28491;46.898;7.660;2023-08-01T02:47:39;18.90;1.00
42841;DHT22;28491;46.898;7.660;2023-08-01T02:50:05;18.90;1.00
42841;DHT22;28491;46.898;7.660;2023-08-01T02:52:31;19.00;1.00
42841;DHT22;28491;46.898;7.660;2023-08-01T02:54:56;19.00;1.00
42841;DHT22;28491;46.898;7.660;2023-08-01T02:57:22;19.00;1.00
42841;DHT22;28491;46.898;7.660;2023-08-01T02:59:47;19.00;1.00
42841;DHT22;28491;46.898;7.660;2023-08-01T03:02:13;19.00;1.00
42841;DHT22;28491;46.898;7.660;2023-08-01T03:04:38;19.00;1.00
42841;DHT22;28491;46.898;7.660;2023-08-01T03:07:04;19.00;1.00
42841;DHT22;28491;46.898;7.660;2023-08-01T03:09:30;19.00;1.00
42841;DHT22;28491;46.898;7.660;2023-08-01T03:11:57;19.00;1.00
42841;DHT22;28491;46.898;7.660;2023-08-01T03:14:22;18.90;1.00
42841;DHT22;28491;46.898;7.660;2023-08-01T03:16:48;18.90;1.00
42841;DHT22;28491;46.898;7.660;2023-08-01T03:19:13;19.00;1.00
42841;DHT22;28491;46.898;7.660;2023-08-01T03:21:39;18.90;1.00
42841;DHT22;28491;46.898;7.660;2023-08-01T03:24:04;18.90;1.00
42841;DHT22;28491;46.898;7.660;2023-08-01T03:26:34;18.90;1.00
42841;DHT22;28491;46.898;7.660;2023-08-01T03:29:00;18.90;1.00
42841;DHT22;28491;46.898;7.660;2023-08-01T03:31:25;18.90;1.00
42841;DHT22;28491;46.898;7.660;2023-08-01T03:33:51;18.90;1.00
42841;DHT22;28491;46.898;7.660;2023-08-01T03:36:16;18.90;1.00
42841;DHT22;28491;46.898;7.660;2023-08-01T03:38:42;18.80;1.00
42841;DHT22;28491;46.898;7.660;2023-08-01T03:41:08;18.90;1.00
42841;DHT22;28491;46.898;7.660;2023-08-01T03:43:34;18.80;1.00
42841;DHT22;28491;46.898;7.660;2023-08-01T03:45:59;18.80;1.00
42841;DHT22;28491;46.898;7.660;2023-08-01T03:48:25;18.80;1.00
42841;DHT22;28491;46.898;7.660;2023-08-01T03:50:50;18.80;1.00
42841;DHT22;28491;46.898;7.660;2023-08-01T03:53:16;18.80;1.00
42841;DHT22;28491;46.898;7.660;2023-08-01T03:55:44;18.80;1.00
42841;DHT22;28491;46.898;7.660;2023-08-01T03:58:09;18.80;1.00
42841;DHT22;28491;46.898;7.660;2023-08-01T04:00:35;18.80;1.00
42841;DHT22;28491;46.898;7.660;2023-08-01T04:03:01;18.80;1.00
42841;DHT22;28491;46.898;7.660;2023-08-01T04:05:27;18.70;1.00
42841;DHT22;28491;46.898;7.660;2023-08-01T04:07:53;18.80;1.00
42841;DHT22;28491;46.898;7.660;2023-08-01T04:10:20;18.70;1.00
42841;DHT22;28491;46.898;7.660;2023-08-01T04:12:46;18.70;1.00
42841;DHT22;28491;46.898;7.660;2023-08-01T04:15:11;18.70;1.00
42841;DHT22;28491;46.898;7.660;2023-08-01T04:17:37;18.70;1.00
42841;DHT22;28491;46.898;7.660;2023-08-01T04:20:03;18.70;1.00
42841;DHT22;28491;46.898;7.660;2023-08-01T04:22:28;18.70;1.00
42841;DHT22;28491;46.898;7.660;2023-08-01T04:24:54;18.70;1.00
42841;DHT22;28491;46.898;7.660;2023-08-01T04:27:20;18.70;1.00
42841;DHT22;28491;46.898;7.660;2023-08-01T04:29:45;18.70;1.00
42841;DHT22;28491;46.898;7.660;2023-08-01T04:32:11;18.70;1.00
42841;DHT22;28491;46.898;7.660;2023-08-01T04:34:39;18.70;1.00
42841;DHT22;28491;46.898;7.660;2023-08-01T04:37:05;18.70;1.00
42841;DHT22;28491;46.898;7.660;2023-08-01T04:39:30;18.70;1.00
42841;DHT22;28491;46.898;7.660;2023-08-01T04:41:56;18.60;1.00
42841;DHT22;28491;46.898;7.660;2023-08-01T04:44:21;18.60;1.00
42841;DHT22;28491;46.898;7.660;2023-08-01T04:46:48;18.60;1.00
42841;DHT22;28491;46.898;7.660;2023-08-01T04:49:14;18.50;1.00
42841;DHT22;28491;46.898;7.660;2023-08-01T04:51:40;18.50;1.00
42841;DHT22;28491;46.898;7.660;2023-08-01T04:54:05;18.50;1.00
42841;DHT22;28491;46.898;7.660;2023-08-01T04:56:31;18.50;1.00
42841;DHT22;28491;46.898;7.660;2023-08-01T04:58:58;18.60;1.00
42841;DHT22;28491;46.898;7.660;2023-08-01T05:01:23;18.50;1.00
42841;DHT22;28491;46.898;7.660;2023-08-01T05:03:49;18.50;1.00
42841;DHT22;28491;46.898;7.660;2023-08-01T05:06:14;18.50;1.00
42841;DHT22;28491;46.898;7.660;2023-08-01T05:08:40;18.50;1.00
42841;DHT22;28491;46.898;7.660;2023-08-01T05:11:05;18.50;1.00
42841;DHT22;28491;46.898;7.660;2023-08-01T05:13:31;18.40;1.00
42841;DHT22;28491;46.898;7.660;2023-08-01T05:15:56;18.40;1.00
42841;DHT22;28491;46.898;7.660;2023-08-01T05:18:22;18.50;1.00
42841;DHT22;28491;46.898;7.660;2023-08-01T05:20:47;18.50;1.00
42841;DHT22;28491;46.898;7.660;2023-08-01T05:23:13;18.50;1.00
42841;DHT22;28491;46.898;7.660;2023-08-01T05:25:39;18.50;1.00
42841;DHT22;28491;46.898;7.660;2023-08-01T05:28:04;18.50;1.00
42841;DHT22;28491;46.898;7.660;2023-08-01T05:30:30;18.60;1.00
42841;DHT22;28491;46.898;7.660;2023-08-01T05:32:55;18.50;1.00
42841;DHT22;28491;46.898;7.660;2023-08-01T05:35:21;18.50;1.00
42841;DHT22;28491;46.898;7.660;2023-08-01T05:37:47;18.50;1.00
42841;DHT22;28491;46.898;7.660;2023-08-01T05:40:12;18.50;1.00
42841;DHT22;28491;46.898;7.660;2023-08-01T05:42:38;18.50;1.00
42841;DHT22;28491;46.898;7.660;2023-08-01T05:45:04;18.60;1.00
42841;DHT22;28491;46.898;7.660;2023-08-01T05:47:30;18.60;1.00
42841;DHT22;28491;46.898;7.660;2023-08-01T05:49:56;18.60;1.00
42841;DHT22;28491;46.898;7.660;2023-08-01T05:52:22;18.60;1.00
42841;DHT22;28491;46.898;7.660;2023-08-01T05:54:47;18.70;1.00
42841;DHT22;28491;46.898;7.660;2023-08-01T05:57:13;18.70;1.00
42841;DHT22;28491;46.898;7.660;2023-08-01T05:59:38;18.70;1.00
42841;DHT22;28491;46.898;7.660;2023-08-01T06:02:04;18.80;1.00
42841;DHT22;28491;46.898;7.660;2023-08-01T06:04:30;18.80;1.00
42841;DHT22;28491;46.898;7.660;2023-08-01T06:06:55;18.80;1.00
42841;DHT22;28491;46.898;7.660;2023-08-01T06:09:21;18.80;1.00
42841;DHT22;28491;46.898;7.660;2023-08-01T06:11:47;18.80;1.00
42841;DHT22;28491;46.898;7.660;2023-08-01T06:14:13;18.90;1.00
42841;DHT22;28491;46.898;7.660;2023-08-01T06:16:38;18.90;1.00
42841;DHT22;28491;46.898;7.660;2023-08-01T06:19:04;18.80;1.00
42841;DHT22;28491;46.898;7.660;2023-08-01T06:21:30;18.80;1.00
42841;DHT22;28491;46.898;7.660;2023-08-01T06:23:55;18.80;1.00
42841;DHT22;28491;46.898;7.660;2023-08-01T06:26:21;18.80;1.00
42841;DHT22;28491;46.898;7.660;2023-08-01T06:28:46;18.80;1.00
42841;DHT22;28491;46.898;7.660;2023-08-01T06:31:12;18.80;1.00
42841;DHT22;28491;46.898;7.660;2023-08-01T06:33:37;18.90;1.00
42841;DHT22;28491;46.898;7.660;2023-08-01T06:36:03;18.90;1.00
42841;DHT22;28491;46.898;7.660;2023-08-01T06:38:29;18.80;1.00
42841;DHT22;28491;46.898;7.660;2023-08-01T06:40:54;18.80;1.00
42841;DHT22;28491;46.898;7.660;2023-08-01T06:43:20;18.90;1.00
42841;DHT22;28491;46.898;7.660;2023-08-01T06:45:45;18.80;1.00
42841;DHT22;28491;46.898;7.660;2023-08-01T06:48:11;18.80;1.00
42841;DHT22;28491;46.898;7.660;2023-08-01T06:50:39;18.70;1.00
42841;DHT22;28491;46.898;7.660;2023-08-01T06:53:05;18.50;1.00
42841;DHT22;28491;46.898;7.660;2023-08-01T06:55:33;18.40;17.40
42841;DHT22;28491;46.898;7.660;2023-08-01T06:57:59;18.20;29.10
42841;DHT22;28491;46.898;7.660;2023-08-01T07:00:24;18.20;32.00
42841;DHT22;28491;46.898;7.660;2023-08-01T07:02:50;18.00;44.20
42841;DHT22;28491;46.898;7.660;2023-08-01T07:05:15;17.90;42.50
42841;DHT22;28491;46.898;7.660;2023-08-01T07:07:41;17.90;47.80
42841;DHT22;28491;46.898;7.660;2023-08-01T07:10:07;17.80;52.60
42841;DHT22;28491;46.898;7.660;2023-08-01T07:12:33;17.70;45.80
42841;DHT22;28491;46.898;7.660;2023-08-01T07:14:58;17.70;52.50
42841;DHT22;28491;46.898;7.660;2023-08-01T07:17:24;17.60;51.30
42841;DHT22;28491;46.898;7.660;2023-08-01T07:19:49;17.60;57.80
42841;DHT22;28491;46.898;7.660;2023-08-01T07:22:15;17.60;57.00
42841;DHT22;28491;46.898;7.660;2023-08-01T07:24:40;17.60;48.60
42841;DHT22;28491;46.898;7.660;2023-08-01T07:27:08;17.50;38.60
42841;DHT22;28491;46.898;7.660;2023-08-01T07:29:34;17.50;42.40
42841;DHT22;28491;46.898;7.660;2023-08-01T07:31:59;17.50;34.30
42841;DHT22;28491;46.898;7.660;2023-08-01T07:34:25;17.50;44.30
42841;DHT22;28491;46.898;7.660;2023-08-01T07:36:51;17.40;42.70
42841;DHT22;28491;46.898;7.660;2023-08-01T07:39:17;17.40;41.40
42841;DHT22;28491;46.898;7.660;2023-08-01T07:41:42;17.40;40.20
42841;DHT22;28491;46.898;7.660;2023-08-01T07:44:08;17.50;46.50
42841;DHT22;28491;46.898;7.660;2023-08-01T07:46:33;17.40;44.80
42841;DHT22;28491;46.898;7.660;2023-08-01T07:48:59;17.40;53.50
42841;DHT22;28491;46.898;7.660;2023-08-01T07:51:27;17.40;56.40
42841;DHT22;28491;46.898;7.660;2023-08-01T07:53:54;17.40;60.10
42841;DHT22;28491;46.898;7.660;2023-08-01T07:56:20;17.40;60.70
42841;DHT22;28491;46.898;7.660;2023-08-01T07:58:46;17.30;60.80
42841;DHT22;28491;46.898;7.660;2023-08-01T08:01:12;17.30;61.70
42841;DHT22;28491;46.898;7.660;2023-08-01T08:03:38;17.30;61.30
42841;DHT22;28491;46.898;7.660;2023-08-01T08:06:03;17.30;61.10
42841;DHT22;28491;46.898;7.660;2023-08-01T08:08:30;17.40;60.70
42841;DHT22;28491;46.898;7.660;2023-08-01T08:10:58;17.40;58.10
42841;DHT22;28491;46.898;7.660;2023-08-01T08:13:24;17.40;60.10
42841;DHT22;28491;46.898;7.660;2023-08-01T08:15:51;17.40;60.80
42841;DHT22;28491;46.898;7.660;2023-08-01T08:18:16;17.40;53.50
42841;DHT22;28491;46.898;7.660;2023-08-01T08:20:45;17.40;49.60
42841;DHT22;28491;46.898;7.660;2023-08-01T08:23:11;17.40;60.60
42841;DHT22;28491;46.898;7.660;2023-08-01T08:25:41;17.40;60.50
42841;DHT22;28491;46.898;7.660;2023-08-01T08:28:07;17.40;60.40
42841;DHT22;28491;46.898;7.660;2023-08-01T08:30:33;17.50;60.50
42841;DHT22;28491;46.898;7.660;2023-08-01T08:33:05;17.30;60.80
42841;DHT22;28491;46.898;7.660;2023-08-01T08:35:36;17.40;61.20
42841;DHT22;28491;46.898;7.660;2023-08-01T08:38:03;17.30;61.50
42841;DHT22;28491;46.898;7.660;2023-08-01T08:40:39;17.40;62.30
42841;DHT22;28491;46.898;7.660;2023-08-01T08:43:06;17.50;63.40
42841;DHT22;28491;46.898;7.660;2023-08-01T08:45:37;17.60;62.90
42841;DHT22;28491;46.898;7.660;2023-08-01T08:48:13;17.60;62.30
42841;DHT22;28491;46.898;7.660;2023-08-01T08:50:43;17.60;62.00
42841;DHT22;28491;46.898;7.660;2023-08-01T08:53:09;17.60;62.30
42841;DHT22;28491;46.898;7.660;2023-08-01T08:55:39;17.60;61.60
42841;DHT22;28491;46.898;7.660;2023-08-01T08:58:05;17.70;59.70
42841;DHT22;28491;46.898;7.660;2023-08-01T09:00:31;17.70;61.90
42841;DHT22;28491;46.898;7.660;2023-08-01T09:02:57;17.70;61.50
42841;DHT22;28491;46.898;7.660;2023-08-01T09:05:27;17.70;60.80
42841;DHT22;28491;46.898;7.660;2023-08-01T09:08:04;17.80;60.90
42841;DHT22;28491;46.898;7.660;2023-08-01T09:10:33;17.80;56.10
42841;DHT22;28491;46.898;7.660;2023-08-01T09:13:43;17.90;54.10
42841;DHT22;28491;46.898;7.660;2023-08-01T09:16:10;18.00;47.30
42841;DHT22;28491;46.898;7.660;2023-08-01T09:18:47;18.00;40.00
42841;DHT22;28491;46.898;7.660;2023-08-01T09:21:12;18.00;32.40
42841;DHT22;28491;46.898;7.660;2023-08-01T09:23:38;18.00;41.50
42841;DHT22;28491;46.898;7.660;2023-08-01T09:26:14;18.00;51.90
42841;DHT22;28491;46.898;7.660;2023-08-01T09:28:40;18.00;44.60
42841;DHT22;28491;46.898;7.660;2023-08-01T09:31:05;18.00;49.20
42841;DHT22;28491;46.898;7.660;2023-08-01T09:33:41;17.90;34.50
42841;DHT22;28491;46.898;7.660;2023-08-01T09:36:07;17.90;31.30
42841;DHT22;28491;46.898;7.660;2023-08-01T09:38:37;17.80;31.30
42841;DHT22;28491;46.898;7.660;2023-08-01T09:41:04;17.90;31.10
42841;DHT22;28491;46.898;7.660;2023-08-01T09:43:36;17.70;32.20
42841;DHT22;28491;46.898;7.660;2023-08-01T09:46:02;17.90;42.80
42841;DHT22;28491;46.898;7.660;2023-08-01T09:48:29;17.80;48.00
42841;DHT22;28491;46.898;7.660;2023-08-01T09:51:12;17.90;49.60
42841;DHT22;28491;46.898;7.660;2023-08-01T09:53:52;17.90;50.50
42841;DHT22;28491;46.898;7.660;2023-08-01T09:56:23;17.90;51.20
42841;DHT22;28491;46.898;7.660;2023-08-01T09:58:50;18.00;43.60
42841;DHT22;28491;46.898;7.660;2023-08-01T10:01:17;18.00;46.90
42841;DHT22;28491;46.898;7.660;2023-08-01T10:03:51;18.00;42.00
42841;DHT22;28491;46.898;7.660;2023-08-01T10:06:18;18.10;41.20
42841;DHT22;28491;46.898;7.660;2023-08-01T10:08:49;18.10;40.10
42841;DHT22;28491;46.898;7.660;2023-08-01T10:11:17;18.20;15.90
42841;DHT22;28491;46.898;7.660;2023-08-01T10:13:44;18.10;21.10
42841;DHT22;28491;46.898;7.660;2023-08-01T10:16:10;18.20;8.90
42841;DHT22;28491;46.898;7.660;2023-08-01T10:18:39;18.30;11.20
42841;DHT22;28491;46.898;7.660;2023-08-01T10:21:06;18.40;17.10
42841;DHT22;28491;46.898;7.660;2023-08-01T10:23:35;18.40;16.30
42841;DHT22;28491;46.898;7.660;2023-08-01T10:26:02;18.50;9.40
42841;DHT22;28491;46.898;7.660;2023-08-01T10:28:37;18.60;8.70
42841;DHT22;28491;46.898;7.660;2023-08-01T10:31:13;18.60;8.60
42841;DHT22;28491;46.898;7.660;2023-08-01T10:33:40;18.60;18.50
42841;DHT22;28491;46.898;7.660;2023-08-01T10:36:21;18.70;25.20
42841;DHT22;28491;46.898;7.660;2023-08-01T10:39:01;18.80;23.10
42841;DHT22;28491;46.898;7.660;2023-08-01T10:41:36;18.80;23.50
42841;DHT22;28491;46.898;7.660;2023-08-01T10:44:14;18.80;8.60
42841;DHT22;28491;46.898;7.660;2023-08-01T10:46:59;18.90;10.00
42841;DHT22;28491;46.898;7.660;2023-08-01T10:49:42;18.80;13.10
42841;DHT22;28491;46.898;7.660;2023-08-01T10:52:22;18.90;1.00
42841;DHT22;28491;46.898;7.660;2023-08-01T10:55:02;18.90;1.00
42841;DHT22;28491;46.898;7.660;2023-08-01T10:57:29;19.00;1.00
42841;DHT22;28491;46.898;7.660;2023-08-01T10:59:57;19.00;1.00
42841;DHT22;28491;46.898;7.660;2023-08-01T11:02:27;19.00;1.00
42841;DHT22;28491;46.898;7.660;2023-08-01T11:07:29;18.90;1.00
42841;DHT22;28491;46.898;7.660;2023-08-01T11:10:11;18.90;1.00
42841;DHT22;28491;46.898;7.660;2023-08-01T11:12:39;19.00;1.00
42841;DHT22;28491;46.898;7.660;2023-08-01T11:15:07;19.00;1.00
42841;DHT22;28491;46.898;7.660;2023-08-01T11:17:34;19.10;1.00
42841;DHT22;28491;46.898;7.660;2023-08-01T11:20:12;19.20;1.00
42841;DHT22;28491;46.898;7.660;2023-08-01T11:22:59;19.30;1.00
42841;DHT22;28491;46.898;7.660;2023-08-01T11:25:34;19.30;1.00
42841;DHT22;28491;46.898;7.660;2023-08-01T11:28:07;19.40;1.00
42841;DHT22;28491;46.898;7.660;2023-08-01T11:30:41;19.40;1.00
42841;DHT22;28491;46.898;7.660;2023-08-01T11:33:27;19.40;1.00
42841;DHT22;28491;46.898;7.660;2023-08-01T11:36:05;19.40;1.00
42841;DHT22;28491;46.898;7.660;2023-08-01T11:38:34;19.50;1.00
42841;DHT22;28491;46.898;7.660;2023-08-01T11:41:02;19.40;1.00
42841;DHT22;28491;46.898;7.660;2023-08-01T11:43:42;19.50;1.00
42841;DHT22;28491;46.898;7.660;2023-08-01T11:46:08;19.50;1.00
42841;DHT22;28491;46.898;7.660;2023-08-01T11:48:35;19.60;1.00
42841;DHT22;28491;46.898;7.660;2023-08-01T11:51:01;19.50;1.00
42841;DHT22;28491;46.898;7.660;2023-08-01T11:53:28;19.50;1.00
42841;DHT22;28491;46.898;7.660;2023-08-01T11:55:54;19.40;1.00
42841;DHT22;28491;46.898;7.660;2023-08-01T11:58:35;19.40;1.00
42841;DHT22;28491;46.898;7.660;2023-08-01T12:03:28;19.50;1.00
42841;DHT22;28491;46.898;7.660;2023-08-01T12:06:03;19.40;1.00
42841;DHT22;28491;46.898;7.660;2023-08-01T12:08:31;19.40;1.00
42841;DHT22;28491;46.898;7.660;2023-08-01T12:10:58;19.40;1.00
42841;DHT22;28491;46.898;7.660;2023-08-01T12:13:25;19.30;1.00
42841;DHT22;28491;46.898;7.660;2023-08-01T12:15:53;19.40;1.00
42841;DHT22;28491;46.898;7.660;2023-08-01T12:18:23;19.40;1.00
42841;DHT22;28491;46.898;7.660;2023-08-01T12:20:49;19.40;1.00
42841;DHT22;28491;46.898;7.660;2023-08-01T12:23:14;19.50;1.00
42841;DHT22;28491;46.898;7.660;2023-08-01T12:25:40;19.50;1.00
42841;DHT22;28491;46.898;7.660;2023-08-01T12:28:06;19.50;1.00
42841;DHT22;28491;46.898;7.660;2023-08-01T12:30:31;19.50;1.00
42841;DHT22;28491;46.898;7.660;2023-08-01T12:32:57;19.50;1.00
42841;DHT22;28491;46.898;7.660;2023-08-01T12:35:22;19.40;1.00
42841;DHT22;28491;46.898;7.660;2023-08-01T12:37:48;19.40;1.00
42841;DHT22;28491;46.898;7.660;2023-08-01T12:40:14;19.40;1.00
42841;DHT22;28491;46.898;7.660;2023-08-01T12:42:42;19.30;1.00
42841;DHT22;28491;46.898;7.660;2023-08-01T12:45:08;19.30;1.00
42841;DHT22;28491;46.898;7.660;2023-08-01T12:47:34;19.20;1.00
42841;DHT22;28491;46.898;7.660;2023-08-01T12:50:07;19.10;1.00
42841;DHT22;28491;46.898;7.660;2023-08-01T12:52:33;19.10;9.40
42841;DHT22;28491;46.898;7.660;2023-08-01T12:54:58;18.90;20.50
42841;DHT22;28491;46.898;7.660;2023-08-01T12:57:25;18.90;27.80
42841;DHT22;28491;46.898;7.660;2023-08-01T12:59:50;18.80;39.00
42841;DHT22;28491;46.898;7.660;2023-08-01T13:02:16;18.70;44.20
42841;DHT22;28491;46.898;7.660;2023-08-01T13:04:42;18.70;46.50
42841;DHT22;28491;46.898;7.660;2023-08-01T13:07:07;18.70;55.30
42841;DHT22;28491;46.898;7.660;2023-08-01T13:09:33;18.50;60.20
42841;DHT22;28491;46.898;7.660;2023-08-01T13:11:59;18.50;61.10
42841;DHT22;28491;46.898;7.660;2023-08-01T13:14:25;18.40;61.90
42841;DHT22;28491;46.898;7.660;2023-08-01T13:16:51;18.40;62.50
42841;DHT22;28491;46.898;7.660;2023-08-01T13:19:18;18.40;64.00
42841;DHT22;28491;46.898;7.660;2023-08-01T13:22:00;18.50;65.30
42841;DHT22;28491;46.898;7.660;2023-08-01T13:24:29;18.50;64.60
42841;DHT22;28491;46.898;7.660;2023-08-01T13:26:54;18.60;64.20
42841;DHT22;28491;46.898;7.660;2023-08-01T13:29:20;18.50;62.80
42841;DHT22;28491;46.898;7.660;2023-08-01T13:31:45;18.50;61.00
42841;DHT22;28491;46.898;7.660;2023-08-01T13:34:11;18.50;60.60
42841;DHT22;28491;46.898;7.660;2023-08-01T13:36:36;18.50;60.90
42841;DHT22;28491;46.898;7.660;2023-08-01T13:39:02;18.50;61.40
42841;DHT22;28491;46.898;7.660;2023-08-01T13:41:31;18.50;62.00
42841;DHT22;28491;46.898;7.660;2023-08-01T13:43:57;18.50;62.20
42841;DHT22;28491;46.898;7.660;2023-08-01T13:46:22;18.60;60.40
42841;DHT22;28491;46.898;7.660;2023-08-01T13:48:48;18.60;59.40
42841;DHT22;28491;46.898;7.660;2023-08-01T13:51:16;18.70;60.70
42841;DHT22;28491;46.898;7.660;2023-08-01T13:53:42;18.60;57.70
42841;DHT22;28491;46.898;7.660;2023-08-01T13:56:10;18.70;56.70
42841;DHT22;28491;46.898;7.660;2023-08-01T13:58:39;18.60;54.20
42841;DHT22;28491;46.898;7.660;2023-08-01T14:01:06;18.60;56.00
42841;DHT22;28491;46.898;7.660;2023-08-01T14:03:37;18.70;61.40
42841;DHT22;28491;46.898;7.660;2023-08-01T14:06:07;18.70;62.80
42841;DHT22;28491;46.898;7.660;2023-08-01T14:08:33;18.70;62.70
42841;DHT22;28491;46.898;7.660;2023-08-01T14:11:00;18.80;63.20
42841;DHT22;28491;46.898;7.660;2023-08-01T14:13:26;18.70;63.00
42841;DHT22;28491;46.898;7.660;2023-08-01T14:15:54;18.70;61.90
42841;DHT22;28491;46.898;7.660;2023-08-01T14:18:20;18.60;61.30
42841;DHT22;28491;46.898;7.660;2023-08-01T14:20:46;18.50;62.30
42841;DHT22;28491;46.898;7.660;2023-08-01T14:23:12;18.60;63.20
42841;DHT22;28491;46.898;7.660;2023-08-01T14:25:40;18.60;63.90
42841;DHT22;28491;46.898;7.660;2023-08-01T14:28:06;18.50;63.10
42841;DHT22;28491;46.898;7.660;2023-08-01T14:30:31;18.60;63.00
42841;DHT22;28491;46.898;7.660;2023-08-01T14:33:01;18.60;63.30
42841;DHT22;28491;46.898;7.660;2023-08-01T14:35:27;18.50;63.50
42841;DHT22;28491;46.898;7.660;2023-08-01T14:37:53;18.60;63.50
42841;DHT22;28491;46.898;7.660;2023-08-01T14:40:20;18.60;64.00
42841;DHT22;28491;46.898;7.660;2023-08-01T14:42:46;18.60;63.40
42841;DHT22;28491;46.898;7.660;2023-08-01T14:45:12;18.60;63.70
42841;DHT22;28491;46.898;7.660;2023-08-01T14:47:38;18.50;64.80
42841;DHT22;28491;46.898;7.660;2023-08-01T14:50:04;18.50;65.00
42841;DHT22;28491;46.898;7.660;2023-08-01T14:52:30;18.50;64.20
42841;DHT22;28491;46.898;7.660;2023-08-01T14:54:56;18.40;64.80
42841;DHT22;28491;46.898;7.660;2023-08-01T14:57:21;18.40;64.80
42841;DHT22;28491;46.898;7.660;2023-08-01T14:59:47;18.50;61.60
42841;DHT22;28491;46.898;7.660;2023-08-01T15:02:13;18.40;62.40
42841;DHT22;28491;46.898;7.660;2023-08-01T15:04:38;18.30;62.60
42841;DHT22;28491;46.898;7.660;2023-08-01T15:07:04;18.40;61.70
42841;DHT22;28491;46.898;7.660;2023-08-01T15:09:30;18.40;62.70
42841;DHT22;28491;46.898;7.660;2023-08-01T15:11:55;18.40;61.10
42841;DHT22;28491;46.898;7.660;2023-08-01T15:14:21;18.40;61.70
42841;DHT22;28491;46.898;7.660;2023-08-01T15:16:48;18.40;61.40
42841;DHT22;28491;46.898;7.660;2023-08-01T15:19:14;18.50;61.20
42841;DHT22;28491;46.898;7.660;2023-08-01T15:21:39;18.40;61.40
42841;DHT22;28491;46.898;7.660;2023-08-01T15:24:05;18.40;61.20
42841;DHT22;28491;46.898;7.660;2023-08-01T15:26:30;18.40;61.70
42841;DHT22;28491;46.898;7.660;2023-08-01T15:28:56;18.40;62.00
42841;DHT22;28491;46.898;7.660;2023-08-01T15:31:22;18.40;61.00
42841;DHT22;28491;46.898;7.660;2023-08-01T15:33:47;18.40;61.30
42841;DHT22;28491;46.898;7.660;2023-08-01T15:36:13;18.40;60.00
42841;DHT22;28491;46.898;7.660;2023-08-01T15:38:41;18.40;61.20
42841;DHT22;28491;46.898;7.660;2023-08-01T15:41:11;18.70;62.50
42841;DHT22;28491;46.898;7.660;2023-08-01T15:43:40;18.70;61.00
42841;DHT22;28491;46.898;7.660;2023-08-01T15:46:07;18.80;51.40